createdAt,value
2017-10-22T00:00:57.129Z,11.90
2017-10-22T00:01:57.700Z,11.81
2017-10-22T00:02:58.273Z,11.68
2017-10-22T00:03:58.844Z,11.83
2017-10-22T00:04:59.415Z,11.87
2017-10-22T00:05:59.990Z,11.70
2017-10-22T00:07:00.570Z,11.73
2017-10-22T00:08:01.145Z,11.70
2017-10-22T00:09:01.717Z,11.87
2017-10-22T00:10:02.288Z,11.77
2017-10-22T00:11:02.860Z,11.73
2017-10-22T00:12:03.433Z,11.81
2017-10-22T00:13:04.005Z,11.72
2017-10-22T00:14:04.575Z,11.72
2017-10-22T00:15:05.146Z,11.73
2017-10-22T00:16:05.718Z,11.69
2017-10-22T00:17:06.291Z,11.75
2017-10-22T00:18:06.875Z,11.69
2017-10-22T00:19:07.447Z,11.73
2017-10-22T00:20:08.018Z,11.66
2017-10-22T00:21:08.589Z,11.83
2017-10-22T00:22:09.163Z,11.81
2017-10-22T00:23:09.735Z,11.70
2017-10-22T00:24:10.309Z,11.65
2017-10-22T00:25:10.882Z,11.60
2017-10-22T00:26:11.453Z,11.72
2017-10-22T00:27:12.024Z,11.54
2017-10-22T00:28:12.595Z,11.59
2017-10-22T00:29:13.166Z,11.51
2017-10-22T00:30:13.738Z,11.44
2017-10-22T00:31:14.311Z,11.48
2017-10-22T00:32:14.892Z,11.47
2017-10-22T00:33:15.464Z,11.45
2017-10-22T00:34:16.036Z,11.44
2017-10-22T00:35:16.608Z,11.44
2017-10-22T00:36:17.181Z,11.45
2017-10-22T00:37:17.751Z,11.45
2017-10-22T00:38:18.324Z,11.50
2017-10-22T00:39:18.898Z,11.63
2017-10-22T00:40:19.470Z,11.55
2017-10-22T00:41:20.041Z,11.57
2017-10-22T00:42:20.613Z,11.50
2017-10-22T00:43:21.183Z,11.57
2017-10-22T00:44:21.755Z,11.55
2017-10-22T00:45:22.325Z,11.60
2017-10-22T00:46:22.895Z,11.62
2017-10-22T00:47:23.469Z,11.47
2017-10-22T00:48:24.039Z,11.29
2017-10-22T00:49:24.617Z,11.45
2017-10-22T00:50:25.196Z,11.47
2017-10-22T00:51:25.768Z,11.48
2017-10-22T00:52:26.338Z,11.45
2017-10-22T00:53:26.909Z,11.43
2017-10-22T00:54:27.483Z,11.32
2017-10-22T00:55:28.056Z,11.26
2017-10-22T00:56:28.644Z,11.26
2017-10-22T00:57:29.202Z,11.17
2017-10-22T00:58:29.774Z,11.32
2017-10-22T00:59:30.345Z,11.33
2017-10-22T01:00:30.918Z,11.17
2017-10-22T01:01:31.490Z,11.22
2017-10-22T01:02:32.063Z,11.19
2017-10-22T01:03:32.645Z,11.25
2017-10-22T01:04:33.219Z,11.26
2017-10-22T01:05:33.789Z,11.25
2017-10-22T01:06:34.364Z,11.37
2017-10-22T01:07:34.932Z,11.29
2017-10-22T01:08:35.516Z,11.35
2017-10-22T01:09:36.087Z,11.36
2017-10-22T01:10:36.658Z,11.25
2017-10-22T01:11:37.230Z,11.23
2017-10-22T01:12:37.798Z,11.12
2017-10-22T01:13:38.382Z,11.11
2017-10-22T01:14:38.951Z,11.12
2017-10-22T01:15:39.523Z,11.30
2017-10-22T01:16:40.105Z,11.10
2017-10-22T01:17:40.686Z,11.15
2017-10-22T01:18:41.256Z,11.11
2017-10-22T01:19:41.828Z,11.15
2017-10-22T01:20:42.398Z,11.05
2017-10-22T01:21:42.968Z,10.99
2017-10-22T01:22:43.539Z,11.12
2017-10-22T01:23:44.110Z,11.11
2017-10-22T01:24:44.680Z,11.15
2017-10-22T01:25:45.254Z,11.05
2017-10-22T01:26:45.825Z,11.12
2017-10-22T01:27:46.398Z,11.07
2017-10-22T01:28:46.967Z,11.18
2017-10-22T01:29:47.553Z,11.07
2017-10-22T01:30:48.110Z,11.05
2017-10-22T01:31:48.682Z,11.10
2017-10-22T01:32:49.252Z,11.10
2017-10-22T01:33:49.822Z,11.12
2017-10-22T01:34:50.392Z,11.15
2017-10-22T01:35:50.964Z,11.11
2017-10-22T01:36:51.534Z,11.07
2017-10-22T01:37:52.104Z,10.99
2017-10-22T01:38:52.674Z,11.07
2017-10-22T01:39:53.245Z,11.08
2017-10-22T01:40:53.814Z,11.15
2017-10-22T01:41:54.385Z,11.11
2017-10-22T01:42:54.960Z,11.12
2017-10-22T01:43:55.527Z,11.19
2017-10-22T01:44:56.099Z,11.15
2017-10-22T01:45:56.671Z,11.12
2017-10-22T01:46:57.244Z,10.99
2017-10-22T01:47:57.814Z,10.94
2017-10-22T01:48:58.385Z,10.99
2017-10-22T01:49:58.957Z,11.00
2017-10-22T01:50:59.528Z,11.11
2017-10-22T01:52:00.099Z,10.99
2017-10-22T01:53:00.669Z,10.97
2017-10-22T01:54:01.253Z,10.96
2017-10-22T01:55:01.823Z,10.99
2017-10-22T01:56:02.396Z,10.96
2017-10-22T01:57:02.965Z,10.93
2017-10-22T01:58:03.546Z,10.97
2017-10-22T01:59:04.119Z,10.93
2017-10-22T02:00:04.689Z,11.02
2017-10-22T02:01:05.273Z,10.99
2017-10-22T02:02:05.841Z,11.14
2017-10-22T02:03:06.411Z,11.14
2017-10-22T02:04:06.981Z,10.99
2017-10-22T02:05:07.554Z,11.00
2017-10-22T02:06:08.126Z,10.93
2017-10-22T02:07:08.697Z,10.87
2017-10-22T02:08:09.268Z,10.82
2017-10-22T02:09:09.841Z,10.82
2017-10-22T02:10:10.412Z,10.87
2017-10-22T02:11:10.994Z,11.00
2017-10-22T02:12:11.567Z,10.97
2017-10-22T02:13:12.139Z,10.87
2017-10-22T02:14:12.708Z,10.93
2017-10-22T02:15:13.280Z,10.92
2017-10-22T02:16:13.851Z,10.93
2017-10-22T02:17:14.433Z,10.94
2017-10-22T02:18:15.005Z,10.99
2017-10-22T02:19:15.576Z,10.96
2017-10-22T02:20:16.156Z,10.87
2017-10-22T02:21:16.725Z,10.84
2017-10-22T02:22:17.296Z,10.89
2017-10-22T02:23:17.877Z,10.87
2017-10-22T02:24:18.448Z,10.93
2017-10-22T02:25:19.028Z,10.97
2017-10-22T02:26:19.598Z,10.99
2017-10-22T02:27:20.179Z,10.84
2017-10-22T02:28:20.743Z,10.86
2017-10-22T02:29:21.315Z,10.90
2017-10-22T02:30:21.896Z,11.04
2017-10-22T02:31:22.467Z,11.00
2017-10-22T02:32:23.038Z,11.14
2017-10-22T02:33:23.611Z,11.08
2017-10-22T02:34:24.188Z,11.12
2017-10-22T02:35:24.760Z,11.05
2017-10-22T02:36:25.330Z,11.19
2017-10-22T02:37:25.901Z,11.19
2017-10-22T02:38:26.472Z,11.14
2017-10-22T02:39:27.042Z,11.14
2017-10-22T02:40:27.612Z,11.17
2017-10-22T02:41:28.181Z,11.14
2017-10-22T02:42:28.751Z,11.12
2017-10-22T02:43:29.332Z,11.08
2017-10-22T02:44:29.903Z,11.15
2017-10-22T02:45:30.474Z,11.23
2017-10-22T02:46:31.046Z,11.15
2017-10-22T02:47:31.627Z,11.22
2017-10-22T02:48:32.197Z,11.17
2017-10-22T02:49:32.777Z,11.17
2017-10-22T02:50:33.349Z,11.15
2017-10-22T02:51:33.918Z,11.15
2017-10-22T02:52:34.491Z,11.25
2017-10-22T02:53:35.057Z,11.25
2017-10-22T02:54:35.638Z,11.23
2017-10-22T02:55:36.216Z,11.12
2017-10-22T02:56:36.789Z,11.26
2017-10-22T02:57:37.360Z,11.25
2017-10-22T02:58:37.931Z,11.33
2017-10-22T02:59:38.500Z,11.25
2017-10-22T03:00:39.070Z,11.26
2017-10-22T03:01:39.647Z,11.37
2017-10-22T03:02:40.214Z,11.33
2017-10-22T03:03:40.787Z,11.33
2017-10-22T03:04:41.357Z,11.40
2017-10-22T03:05:41.930Z,11.66
2017-10-22T03:06:42.499Z,11.60
2017-10-22T03:07:43.071Z,11.55
2017-10-22T03:08:43.641Z,11.60
2017-10-22T03:09:44.211Z,11.55
2017-10-22T03:10:44.782Z,11.59
2017-10-22T03:11:45.351Z,11.60
2017-10-22T03:12:45.920Z,11.50
2017-10-22T03:13:46.490Z,11.62
2017-10-22T03:14:47.060Z,11.62
2017-10-22T03:15:47.635Z,11.55
2017-10-22T03:16:48.200Z,11.54
2017-10-22T03:17:48.774Z,11.62
2017-10-22T03:18:49.358Z,11.69
2017-10-22T03:19:49.935Z,11.62
2017-10-22T03:20:50.507Z,11.54
2017-10-22T03:21:51.078Z,11.52
2017-10-22T03:22:51.649Z,11.62
2017-10-22T03:23:52.222Z,11.57
2017-10-22T03:24:52.793Z,11.62
2017-10-22T03:25:53.365Z,11.73
2017-10-22T03:26:53.936Z,11.73
2017-10-22T03:27:54.507Z,11.75
2017-10-22T03:28:55.077Z,11.73
2017-10-22T03:29:55.647Z,11.73
2017-10-22T03:30:56.217Z,11.69
2017-10-22T03:31:56.788Z,11.75
2017-10-22T03:32:57.358Z,11.73
2017-10-22T03:33:57.927Z,11.80
2017-10-22T03:34:58.499Z,11.72
2017-10-22T03:35:59.070Z,11.77
2017-10-22T03:36:59.639Z,11.77
2017-10-22T03:38:00.212Z,11.77
2017-10-22T03:39:00.833Z,11.80
2017-10-22T03:40:01.405Z,11.83
2017-10-22T03:41:01.976Z,11.81
2017-10-22T03:42:02.546Z,11.87
2017-10-22T03:43:03.117Z,11.73
2017-10-22T03:44:03.687Z,11.80
2017-10-22T03:45:04.259Z,11.78
2017-10-22T03:46:04.827Z,11.73
2017-10-22T03:47:05.398Z,11.77
2017-10-22T03:48:05.969Z,11.73
2017-10-22T03:49:06.539Z,11.69
2017-10-22T03:50:07.107Z,11.69
2017-10-22T03:51:07.677Z,11.77
2017-10-22T03:52:08.249Z,11.66
2017-10-22T03:53:08.820Z,11.73
2017-10-22T03:54:09.391Z,11.65
2017-10-22T03:55:09.964Z,11.70
2017-10-22T03:56:10.536Z,11.75
2017-10-22T03:57:11.116Z,11.63
2017-10-22T03:58:11.687Z,11.66
2017-10-22T03:59:12.259Z,11.69
2017-10-22T04:00:12.828Z,11.62
2017-10-22T04:01:13.399Z,11.66
2017-10-22T04:02:13.984Z,11.62
2017-10-22T04:03:14.552Z,11.73
2017-10-22T04:04:15.121Z,11.70
2017-10-22T04:05:15.692Z,11.63
2017-10-22T04:06:16.263Z,11.69
2017-10-22T04:07:16.833Z,11.70
2017-10-22T04:08:17.404Z,11.73
2017-10-22T04:09:17.973Z,11.70
2017-10-22T04:10:18.544Z,11.60
2017-10-22T04:11:19.115Z,11.66
2017-10-22T04:12:19.690Z,11.59
2017-10-22T04:13:20.256Z,11.59
2017-10-22T04:14:20.828Z,11.57
2017-10-22T04:15:21.400Z,11.47
2017-10-22T04:16:21.980Z,11.43
2017-10-22T04:17:22.551Z,11.45
2017-10-22T04:18:23.122Z,11.51
2017-10-22T04:19:23.692Z,11.33
2017-10-22T04:20:24.275Z,11.32
2017-10-22T04:21:24.845Z,11.27
2017-10-22T04:22:25.422Z,11.18
2017-10-22T04:23:25.987Z,11.10
2017-10-22T04:24:26.555Z,11.15
2017-10-22T04:25:27.126Z,11.22
2017-10-22T04:26:27.698Z,11.08
2017-10-22T04:27:28.279Z,11.10
2017-10-22T04:28:28.857Z,11.11
2017-10-22T04:29:29.421Z,11.15
2017-10-22T04:30:29.992Z,11.08
2017-10-22T04:31:30.564Z,11.10
2017-10-22T04:32:31.131Z,11.15
2017-10-22T04:33:31.702Z,11.08
2017-10-22T04:34:32.271Z,11.08
2017-10-22T04:35:32.842Z,11.08
2017-10-22T04:36:33.412Z,11.10
2017-10-22T04:37:33.982Z,10.99
2017-10-22T04:38:34.551Z,11.04
2017-10-22T04:39:35.122Z,11.07
2017-10-22T04:40:35.691Z,11.12
2017-10-22T04:41:36.261Z,11.17
2017-10-22T04:42:36.832Z,11.14
2017-10-22T04:43:37.401Z,11.02
2017-10-22T04:44:37.971Z,11.14
2017-10-22T04:45:38.541Z,11.05
2017-10-22T04:46:39.112Z,11.04
2017-10-22T04:47:39.684Z,10.93
2017-10-22T04:48:40.256Z,10.99
2017-10-22T04:49:40.828Z,10.97
2017-10-22T04:50:41.398Z,11.00
2017-10-22T04:51:41.970Z,10.99
2017-10-22T04:52:42.541Z,10.82
2017-10-22T04:53:43.111Z,10.90
2017-10-22T04:54:43.681Z,10.84
2017-10-22T04:55:44.251Z,10.94
2017-10-22T04:56:44.822Z,10.81
2017-10-22T04:57:45.392Z,10.76
2017-10-22T04:58:45.961Z,10.76
2017-10-22T04:59:46.532Z,10.69
2017-10-22T05:00:47.107Z,10.69
2017-10-22T05:01:47.673Z,10.69
2017-10-22T05:02:48.243Z,10.64
2017-10-22T05:03:48.813Z,10.71
2017-10-22T05:04:49.384Z,10.64
2017-10-22T05:05:49.954Z,10.67
2017-10-22T05:06:50.528Z,10.63
2017-10-22T05:07:51.099Z,10.56
2017-10-22T05:08:51.670Z,10.60
2017-10-22T05:09:52.241Z,10.57
2017-10-22T05:10:52.812Z,10.44
2017-10-22T05:11:53.383Z,10.44
2017-10-22T05:12:53.963Z,10.44
2017-10-22T05:13:54.535Z,10.48
2017-10-22T05:14:55.106Z,10.40
2017-10-22T05:15:55.678Z,10.40
2017-10-22T05:16:56.246Z,10.35
2017-10-22T05:17:56.817Z,10.33
2017-10-22T05:18:57.387Z,10.34
2017-10-22T05:19:57.957Z,10.25
2017-10-22T05:20:58.527Z,10.30
2017-10-22T05:21:59.096Z,10.35
2017-10-22T05:22:59.667Z,10.34
2017-10-22T05:24:00.236Z,10.19
2017-10-22T05:25:00.806Z,10.28
2017-10-22T05:26:01.373Z,10.17
2017-10-22T05:27:01.943Z,10.28
2017-10-22T05:28:02.518Z,10.20
2017-10-22T05:29:03.083Z,10.17
2017-10-22T05:30:03.653Z,10.17
2017-10-22T05:31:04.236Z,10.16
2017-10-22T05:32:04.805Z,10.17
2017-10-22T05:33:05.375Z,10.13
2017-10-22T05:34:05.944Z,10.16
2017-10-22T05:35:06.515Z,10.19
2017-10-22T05:36:07.086Z,10.16
2017-10-22T05:37:07.657Z,10.12
2017-10-22T05:38:08.225Z,10.01
2017-10-22T05:39:08.795Z,10.02
2017-10-22T05:40:09.365Z,9.98
2017-10-22T05:41:09.934Z,10.01
2017-10-22T05:42:10.502Z,10.02
2017-10-22T05:43:11.076Z,10.04
2017-10-22T05:44:11.654Z,10.02
2017-10-22T05:45:12.223Z,9.91
2017-10-22T05:46:12.794Z,9.99
2017-10-22T05:47:13.362Z,9.99
2017-10-22T05:48:13.933Z,9.98
2017-10-22T05:49:14.500Z,9.89
2017-10-22T05:50:15.077Z,9.84
2017-10-22T05:51:15.639Z,9.95
2017-10-22T05:52:16.208Z,9.76
2017-10-22T05:53:16.777Z,9.84
2017-10-22T05:54:17.346Z,9.97
2017-10-22T05:55:17.926Z,9.92
2017-10-22T05:56:18.498Z,9.83
2017-10-22T05:57:19.074Z,9.83
2017-10-22T05:58:19.643Z,9.76
2017-10-22T05:59:20.215Z,9.80
2017-10-22T06:00:20.796Z,9.79
2017-10-22T06:01:21.376Z,9.76
2017-10-22T06:02:21.945Z,9.79
2017-10-22T06:03:22.525Z,9.76
2017-10-22T06:04:23.095Z,9.76
2017-10-22T06:05:23.673Z,9.79
2017-10-22T06:06:24.243Z,9.76
2017-10-22T06:07:24.809Z,9.82
2017-10-22T06:08:25.384Z,9.73
2017-10-22T06:09:25.948Z,9.79
2017-10-22T06:10:26.527Z,9.69
2017-10-22T06:11:27.097Z,9.79
2017-10-22T06:12:27.673Z,9.80
2017-10-22T06:13:28.240Z,9.84
2017-10-22T06:14:28.811Z,9.65
2017-10-22T06:15:29.378Z,9.65
2017-10-22T06:16:29.949Z,9.80
2017-10-22T06:17:30.516Z,9.77
2017-10-22T06:18:31.086Z,9.77
2017-10-22T06:19:31.655Z,9.73
2017-10-22T06:20:32.224Z,9.77
2017-10-22T06:21:32.791Z,9.73
2017-10-22T06:22:33.360Z,9.84
2017-10-22T06:23:33.928Z,9.79
2017-10-22T06:24:34.498Z,9.77
2017-10-22T06:25:35.071Z,9.79
2017-10-22T06:26:35.638Z,9.77
2017-10-22T06:27:36.208Z,9.73
2017-10-22T06:28:36.778Z,9.76
2017-10-22T06:29:37.347Z,9.79
2017-10-22T06:30:37.916Z,9.74
2017-10-22T06:31:38.497Z,9.77
2017-10-22T06:32:39.055Z,9.89
2017-10-22T06:33:39.624Z,9.82
2017-10-22T06:34:40.196Z,9.92
2017-10-22T06:35:40.767Z,9.91
2017-10-22T06:36:41.339Z,9.82
2017-10-22T06:37:41.912Z,9.80
2017-10-22T06:38:42.492Z,9.82
2017-10-22T06:39:43.063Z,9.89
2017-10-22T06:40:43.634Z,9.83
2017-10-22T06:41:44.206Z,9.95
2017-10-22T06:42:44.786Z,9.92
2017-10-22T06:43:45.356Z,9.94
2017-10-22T06:44:45.926Z,9.95
2017-10-22T06:45:46.498Z,9.98
2017-10-22T06:46:47.073Z,9.92
2017-10-22T06:47:47.639Z,9.97
2017-10-22T06:48:48.209Z,9.97
2017-10-22T06:49:48.780Z,9.99
2017-10-22T06:50:49.351Z,10.02
2017-10-22T06:51:49.920Z,10.01
2017-10-22T06:52:50.490Z,9.99
2017-10-22T06:53:51.060Z,9.98
2017-10-22T06:54:51.628Z,9.98
2017-10-22T06:55:52.209Z,10.02
2017-10-22T06:56:52.783Z,10.07
2017-10-22T06:57:53.352Z,10.13
2017-10-22T06:58:53.923Z,10.15
2017-10-22T06:59:54.492Z,10.16
2017-10-22T07:00:55.063Z,10.13
2017-10-22T07:01:55.634Z,10.16
2017-10-22T07:02:56.207Z,10.19
2017-10-22T07:03:56.780Z,10.22
2017-10-22T07:04:57.350Z,10.20
2017-10-22T07:05:57.922Z,10.20
2017-10-22T07:06:58.494Z,10.20
2017-10-22T07:07:59.063Z,10.20
2017-10-22T07:08:59.634Z,10.20
2017-10-22T07:10:00.205Z,10.26
2017-10-22T07:11:00.777Z,10.17
2017-10-22T07:12:01.350Z,10.19
2017-10-22T07:13:01.922Z,10.19
2017-10-22T07:14:02.504Z,10.28
2017-10-22T07:15:03.075Z,10.34
2017-10-22T07:16:03.648Z,10.33
2017-10-22T07:17:04.218Z,10.23
2017-10-22T07:18:04.787Z,10.22
2017-10-22T07:19:05.360Z,10.20
2017-10-22T07:20:05.929Z,10.28
2017-10-22T07:21:06.499Z,10.28
2017-10-22T07:22:07.069Z,10.35
2017-10-22T07:23:07.640Z,10.34
2017-10-22T07:24:08.211Z,10.31
2017-10-22T07:25:08.783Z,10.33
2017-10-22T07:26:09.365Z,10.33
2017-10-22T07:27:09.934Z,10.31
2017-10-22T07:28:10.504Z,10.33
2017-10-22T07:29:11.077Z,10.33
2017-10-22T07:30:11.648Z,10.35
2017-10-22T07:31:12.220Z,10.30
2017-10-22T07:32:12.792Z,10.33
2017-10-22T07:33:13.362Z,10.41
2017-10-22T07:34:13.934Z,10.25
2017-10-22T07:35:14.504Z,10.31
2017-10-22T07:36:15.076Z,10.31
2017-10-22T07:37:15.648Z,10.33
2017-10-22T07:38:16.220Z,10.26
2017-10-22T07:39:16.795Z,10.28
2017-10-22T07:40:17.379Z,10.30
2017-10-22T07:41:17.942Z,10.35
2017-10-22T07:42:18.515Z,10.34
2017-10-22T07:43:19.087Z,10.35
2017-10-22T07:44:19.661Z,10.34
2017-10-22T07:45:20.229Z,10.38
2017-10-22T07:46:20.799Z,10.37
2017-10-22T07:47:21.372Z,10.40
2017-10-22T07:48:21.940Z,10.41
2017-10-22T07:49:22.510Z,10.49
2017-10-22T07:50:23.083Z,10.46
2017-10-22T07:51:23.654Z,10.44
2017-10-22T07:52:24.236Z,10.38
2017-10-22T07:53:24.797Z,10.38
2017-10-22T07:54:25.376Z,10.41
2017-10-22T07:55:25.958Z,10.48
2017-10-22T07:56:26.529Z,10.40
2017-10-22T07:57:27.100Z,10.38
2017-10-22T07:58:27.670Z,10.53
2017-10-22T07:59:28.240Z,10.46
2017-10-22T08:00:28.811Z,10.54
2017-10-22T08:01:29.384Z,10.54
2017-10-22T08:02:29.955Z,10.40
2017-10-22T08:03:30.527Z,10.48
2017-10-22T08:04:31.097Z,10.42
2017-10-22T08:05:31.667Z,10.46
2017-10-22T08:06:32.238Z,10.42
2017-10-22T08:07:32.809Z,10.49
2017-10-22T08:08:33.378Z,10.48
2017-10-22T08:09:33.950Z,10.64
2017-10-22T08:10:34.521Z,10.57
2017-10-22T08:11:35.095Z,10.57
2017-10-22T08:12:35.664Z,10.54
2017-10-22T08:13:36.233Z,10.48
2017-10-22T08:14:36.806Z,10.46
2017-10-22T08:15:37.378Z,10.56
2017-10-22T08:16:37.949Z,10.57
2017-10-22T08:17:38.520Z,10.54
2017-10-22T08:18:39.091Z,10.56
2017-10-22T08:19:39.664Z,10.56
2017-10-22T08:20:40.235Z,10.56
2017-10-22T08:21:40.808Z,10.59
2017-10-22T08:22:41.379Z,10.56
2017-10-22T08:23:41.949Z,10.53
2017-10-22T08:24:42.522Z,10.59
2017-10-22T08:25:43.095Z,10.57
2017-10-22T08:26:43.667Z,10.61
2017-10-22T08:27:44.249Z,10.57
2017-10-22T08:28:44.832Z,10.57
2017-10-22T08:29:45.405Z,10.60
2017-10-22T08:30:45.989Z,10.60
2017-10-22T08:31:46.569Z,10.67
2017-10-22T08:32:47.142Z,10.57
2017-10-22T08:33:47.717Z,10.57
2017-10-22T08:34:48.289Z,10.64
2017-10-22T08:35:48.870Z,10.63
2017-10-22T08:36:49.444Z,10.69
2017-10-22T08:37:50.027Z,10.64
2017-10-22T08:38:50.610Z,10.63
2017-10-22T08:39:51.181Z,10.69
2017-10-22T08:40:51.755Z,10.68
2017-10-22T08:41:52.336Z,10.67
2017-10-22T08:42:52.921Z,10.67
2017-10-22T08:43:53.503Z,10.68
2017-10-22T08:44:54.077Z,10.68
2017-10-22T08:45:54.659Z,10.74
2017-10-22T08:46:55.232Z,10.71
2017-10-22T08:47:55.805Z,10.84
2017-10-22T08:48:56.377Z,10.78
2017-10-22T08:49:56.951Z,10.68
2017-10-22T08:50:57.521Z,10.71
2017-10-22T08:51:58.092Z,10.79
2017-10-22T08:52:58.663Z,10.81
2017-10-22T08:53:59.235Z,10.78
2017-10-22T08:54:59.808Z,10.69
2017-10-22T08:56:00.381Z,10.67
2017-10-22T08:57:00.964Z,10.68
2017-10-22T08:58:01.538Z,10.81
2017-10-22T08:59:02.109Z,10.79
2017-10-22T09:00:02.691Z,10.79
2017-10-22T09:01:03.263Z,10.79
2017-10-22T09:02:03.835Z,10.79
2017-10-22T09:03:04.416Z,10.90
2017-10-22T09:04:04.989Z,10.84
2017-10-22T09:05:05.562Z,10.84
2017-10-22T09:06:06.135Z,10.76
2017-10-22T09:07:06.707Z,10.74
2017-10-22T09:08:07.278Z,10.76
2017-10-22T09:09:07.850Z,10.84
2017-10-22T09:10:08.425Z,10.76
2017-10-22T09:11:08.998Z,10.89
2017-10-22T09:12:09.581Z,10.86
2017-10-22T09:13:10.156Z,10.87
2017-10-22T09:14:10.730Z,10.93
2017-10-22T09:15:11.315Z,10.92
2017-10-22T09:16:11.887Z,10.87
2017-10-22T09:17:12.460Z,10.82
2017-10-22T09:18:13.029Z,10.86
2017-10-22T09:19:13.602Z,10.86
2017-10-22T09:20:14.184Z,10.78
2017-10-22T09:21:14.757Z,10.68
2017-10-22T09:22:15.329Z,10.76
2017-10-22T09:23:15.904Z,10.86
2017-10-22T09:24:16.479Z,10.92
2017-10-22T09:25:17.052Z,10.94
2017-10-22T09:26:17.624Z,10.86
2017-10-22T09:27:18.198Z,10.89
2017-10-22T09:28:18.772Z,10.82
2017-10-22T09:29:19.345Z,10.87
2017-10-22T09:30:19.919Z,10.86
2017-10-22T09:31:20.495Z,10.84
2017-10-22T09:32:21.194Z,10.90
2017-10-22T09:33:21.782Z,10.89
2017-10-22T09:34:22.356Z,10.84
2017-10-22T09:35:22.929Z,10.92
2017-10-22T09:36:23.502Z,10.90
2017-10-22T09:37:24.075Z,10.96
2017-10-22T09:38:24.648Z,11.00
2017-10-22T09:39:25.238Z,11.00
2017-10-22T09:40:25.814Z,10.94
2017-10-22T09:41:26.386Z,10.89
2017-10-22T09:42:26.960Z,10.96
2017-10-22T09:43:27.537Z,10.96
2017-10-22T09:44:28.105Z,10.84
2017-10-22T09:45:28.685Z,10.87
2017-10-22T09:46:29.257Z,10.97
2017-10-22T09:47:29.825Z,11.00
2017-10-22T09:48:30.397Z,10.90
2017-10-22T09:49:30.970Z,10.97
2017-10-22T09:50:31.544Z,10.97
2017-10-22T09:51:32.118Z,10.97
2017-10-22T09:52:32.703Z,10.89
2017-10-22T09:53:33.276Z,10.87
2017-10-22T09:54:33.851Z,10.87
2017-10-22T09:55:34.424Z,10.90
2017-10-22T09:56:34.995Z,10.94
2017-10-22T09:57:35.568Z,10.90
2017-10-22T09:58:36.142Z,10.97
2017-10-22T09:59:36.717Z,10.94
2017-10-22T10:00:37.287Z,10.86
2017-10-22T10:01:37.858Z,10.90
2017-10-22T10:02:38.431Z,11.02
2017-10-22T10:03:39.006Z,10.97
2017-10-22T10:04:39.578Z,10.99
2017-10-22T10:05:40.162Z,10.90
2017-10-22T10:06:40.738Z,10.97
2017-10-22T10:07:41.309Z,11.12
2017-10-22T10:08:41.885Z,10.99
2017-10-22T10:09:42.453Z,10.99
2017-10-22T10:10:43.026Z,10.94
2017-10-22T10:11:43.598Z,10.93
2017-10-22T10:12:44.181Z,10.96
2017-10-22T10:13:44.753Z,10.99
2017-10-22T10:14:45.324Z,10.84
2017-10-22T10:15:45.897Z,11.10
2017-10-22T10:16:46.470Z,10.94
2017-10-22T10:17:47.042Z,10.94
2017-10-22T10:18:47.640Z,10.87
2017-10-22T10:19:48.185Z,10.84
2017-10-22T10:20:48.757Z,10.89
2017-10-22T10:21:49.330Z,11.04
2017-10-22T10:22:49.901Z,11.02
2017-10-22T10:23:50.474Z,10.87
2017-10-22T10:24:51.044Z,10.89
2017-10-22T10:25:51.617Z,10.96
2017-10-22T10:26:52.187Z,10.87
2017-10-22T10:27:52.761Z,10.87
2017-10-22T10:28:53.329Z,11.00
2017-10-22T10:29:53.899Z,10.96
2017-10-22T10:30:54.470Z,10.87
2017-10-22T10:31:55.041Z,10.71
2017-10-22T10:32:55.615Z,10.94
2017-10-22T10:33:56.189Z,10.81
2017-10-22T10:34:56.761Z,11.02
2017-10-22T10:35:57.332Z,10.97
2017-10-22T10:36:57.905Z,10.89
2017-10-22T10:37:58.475Z,10.86
2017-10-22T10:38:59.059Z,10.86
2017-10-22T10:39:59.634Z,10.97
2017-10-22T10:41:00.218Z,10.78
2017-10-22T10:42:00.792Z,10.84
2017-10-22T10:43:01.360Z,10.76
2017-10-22T10:44:01.933Z,10.89
2017-10-22T10:45:02.504Z,10.78
2017-10-22T10:46:03.078Z,10.99
2017-10-22T10:47:03.650Z,10.86
2017-10-22T10:48:04.225Z,10.90
2017-10-22T10:49:04.796Z,10.97
2017-10-22T10:50:05.368Z,10.82
2017-10-22T10:51:05.939Z,10.86
2017-10-22T10:52:06.512Z,10.87
2017-10-22T10:53:07.086Z,10.92
2017-10-22T10:54:07.657Z,10.90
2017-10-22T10:55:08.231Z,10.90
2017-10-22T10:56:08.815Z,10.93
2017-10-22T10:57:09.387Z,10.99
2017-10-22T10:58:09.971Z,10.84
2017-10-22T10:59:10.544Z,10.84
2017-10-22T11:00:11.117Z,10.84
2017-10-22T11:01:11.687Z,10.87
2017-10-22T11:02:12.258Z,10.96
2017-10-22T11:03:12.831Z,10.87
2017-10-22T11:04:13.406Z,10.99
2017-10-22T11:05:13.979Z,10.90
2017-10-22T11:06:14.568Z,10.86
2017-10-22T11:07:15.134Z,10.96
2017-10-22T11:08:15.708Z,10.96
2017-10-22T11:09:16.281Z,11.00
2017-10-22T11:10:16.852Z,11.02
2017-10-22T11:11:17.435Z,10.92
2017-10-22T11:12:18.008Z,11.05
2017-10-22T11:13:18.579Z,11.18
2017-10-22T11:14:19.151Z,10.93
2017-10-22T11:15:19.723Z,11.04
2017-10-22T11:16:20.306Z,11.00
2017-10-22T11:17:20.879Z,10.97
2017-10-22T11:18:21.453Z,10.99
2017-10-22T11:19:22.024Z,11.02
2017-10-22T11:20:22.598Z,11.00
2017-10-22T11:21:23.177Z,11.10
2017-10-22T11:22:23.744Z,11.14
2017-10-22T11:23:24.319Z,11.18
2017-10-22T11:24:24.888Z,11.11
2017-10-22T11:25:25.464Z,11.12
2017-10-22T11:26:26.037Z,11.17
2017-10-22T11:27:26.609Z,11.11
2017-10-22T11:28:27.181Z,11.10
2017-10-22T11:29:27.753Z,11.12
2017-10-22T11:30:28.327Z,11.05
2017-10-22T11:31:28.898Z,11.15
2017-10-22T11:32:29.481Z,11.14
2017-10-22T11:33:30.052Z,11.10
2017-10-22T11:34:30.635Z,11.12
2017-10-22T11:35:31.207Z,11.14
2017-10-22T11:36:31.778Z,11.00
2017-10-22T11:37:32.351Z,11.10
2017-10-22T11:38:32.926Z,11.12
2017-10-22T11:39:33.498Z,11.07
2017-10-22T11:40:34.073Z,10.93
2017-10-22T11:41:34.645Z,11.04
2017-10-22T11:42:35.229Z,11.11
2017-10-22T11:43:35.952Z,11.07
2017-10-22T11:44:36.524Z,11.17
2017-10-22T11:45:37.095Z,11.10
2017-10-22T11:46:37.669Z,11.19
2017-10-22T11:47:38.242Z,11.19
2017-10-22T11:48:38.814Z,11.15
2017-10-22T11:49:39.386Z,11.22
2017-10-22T11:50:39.958Z,11.12
2017-10-22T11:51:40.530Z,11.18
2017-10-22T11:52:41.104Z,11.11
2017-10-22T11:53:41.680Z,11.22
2017-10-22T11:54:42.253Z,11.26
2017-10-22T11:55:42.827Z,11.26
2017-10-22T11:56:43.399Z,11.30
2017-10-22T11:57:43.975Z,11.43
2017-10-22T11:58:44.551Z,11.44
2017-10-22T11:59:45.123Z,11.45
2017-10-22T12:00:45.705Z,11.45
2017-10-22T12:01:46.274Z,11.45
2017-10-22T12:02:46.843Z,11.50
2017-10-22T12:03:47.416Z,11.62
2017-10-22T12:04:47.991Z,11.63
2017-10-22T12:05:48.563Z,11.72
2017-10-22T12:06:49.135Z,11.69
2017-10-22T12:07:49.711Z,11.69
2017-10-22T12:08:50.286Z,11.69
2017-10-22T12:09:50.863Z,11.63
2017-10-22T12:10:51.436Z,11.68
2017-10-22T12:11:52.054Z,11.81
2017-10-22T12:12:52.616Z,11.75
2017-10-22T12:13:53.157Z,11.91
2017-10-22T12:14:53.731Z,12.03
2017-10-22T12:15:54.304Z,11.86
2017-10-22T12:16:54.878Z,11.95
2017-10-22T12:17:55.454Z,11.99
2017-10-22T12:18:56.027Z,12.10
2017-10-22T12:19:56.613Z,12.09
2017-10-22T12:20:57.186Z,12.03
2017-10-22T12:21:57.760Z,12.07
2017-10-22T12:22:58.333Z,12.17
2017-10-22T12:23:58.917Z,12.17
2017-10-22T12:24:59.490Z,12.22
2017-10-22T12:26:00.065Z,12.17
2017-10-22T12:27:00.640Z,12.15
2017-10-22T12:28:01.223Z,12.13
2017-10-22T12:29:01.802Z,12.10
2017-10-22T12:30:02.374Z,12.24
2017-10-22T12:31:02.948Z,12.24
2017-10-22T12:32:03.520Z,12.35
2017-10-22T12:33:04.095Z,12.35
2017-10-22T12:34:04.670Z,12.37
2017-10-22T12:35:05.247Z,12.40
2017-10-22T12:36:05.819Z,12.42
2017-10-22T12:37:06.393Z,12.27
2017-10-22T12:38:06.964Z,12.24
2017-10-22T12:39:07.539Z,12.35
2017-10-22T12:40:08.121Z,12.49
2017-10-22T12:41:08.688Z,12.43
2017-10-22T12:42:09.262Z,12.42
2017-10-22T12:43:09.840Z,12.29
2017-10-22T12:44:10.410Z,12.32
2017-10-22T12:45:10.986Z,12.43
2017-10-22T12:46:11.560Z,12.29
2017-10-22T12:47:12.143Z,12.35
2017-10-22T12:48:12.726Z,12.28
2017-10-22T12:49:13.302Z,12.24
2017-10-22T12:50:13.876Z,12.29
2017-10-22T12:51:14.451Z,12.31
2017-10-22T12:52:15.026Z,12.24
2017-10-22T12:53:15.601Z,12.25
2017-10-22T12:54:16.281Z,12.24
2017-10-22T12:55:16.865Z,12.27
2017-10-22T12:56:17.424Z,12.36
2017-10-22T12:57:17.998Z,12.22
2017-10-22T12:58:18.571Z,12.27
2017-10-22T12:59:19.144Z,12.22
2017-10-22T13:00:19.721Z,12.25
2017-10-22T13:01:20.290Z,12.22
2017-10-22T13:02:20.867Z,12.27